LFSB/MLH METAR and TAF weather

Enter ICAO airport designator
Station Type Date Time Source
LFSB METAR 2019/08/22 09:00 UTC NOAA

LFSB 220900Z 11005KT 080V150 9999 FEW020 18/13 Q1025 NOSIG


Station Type Date Time Source
LFSB Decoded METAR 2019/08/22 09:00 UTC NOAA

Station name not available
Aug 22, 2019 - 05:00 AM EDT / 2019.08.22 0900 UTC
Wind: from the ESE (110 degrees) at 6 MPH (5 KT) (direction variable):0
Visibility: greater than 7 mile(s):0
Sky conditions: mostly clear
Temperature: 64 F (18 C)
Dew Point: 55 F (13 C)
Relative Humidity: 72%
Pressure (altimeter): 30.27 in. Hg (1025 hPa)
ob: LFSB 220900Z 11005KT 080V150 9999 FEW020 18/13 Q1025 NOSIG
cycle: 9

Station Type Date Time Source
LFSB TAF 2019/08/22 06:21 UTC NOAA

TAF LFSB 220500Z 2206/2306 VRB03KT CAVOK PROB30
TEMPO 2206/2207 1500 BCFG
BECMG 2208/2210 FEW030
BECMG 2210/2212 36005KT
TEMPO 2215/2302 BKN045
BECMG 2218/2220 VRB03KT
TEMPO 2300/2306 MIFG PROB40
TEMPO 2303/2306 1500 BCFG

Example: see airport list